sensor_id;sensor_type;location;lat;lon;timestamp;temperature;humidity
68865;DHT22;55898;52.196;4.420;2022-09-27T00:01:36;12.93;72.02
68865;DHT22;55898;52.196;4.420;2022-09-27T00:04:01;12.93;74.27
68865;DHT22;55898;52.196;4.420;2022-09-27T00:06:30;12.88;72.77
68865;DHT22;55898;52.196;4.420;2022-09-27T00:08:57;12.93;71.73
68865;DHT22;55898;52.196;4.420;2022-09-27T00:11:32;13.00;72.27
68865;DHT22;55898;52.196;4.420;2022-09-27T00:13:59;13.09;73.24
68865;DHT22;55898;52.196;4.420;2022-09-27T00:16:28;13.10;73.07
68865;DHT22;55898;52.196;4.420;2022-09-27T00:18:59;13.12;73.68
68865;DHT22;55898;52.196;4.420;2022-09-27T00:21:25;13.14;73.82
68865;DHT22;55898;52.196;4.420;2022-09-27T00:23:51;13.13;74.14
68865;DHT22;55898;52.196;4.420;2022-09-27T00:26:16;12.95;73.35
68865;DHT22;55898;52.196;4.420;2022-09-27T00:28:42;12.88;74.13
68865;DHT22;55898;52.196;4.420;2022-09-27T00:31:17;12.83;74.87
68865;DHT22;55898;52.196;4.420;2022-09-27T00:33:49;12.83;72.60
68865;DHT22;55898;52.196;4.420;2022-09-27T00:36:15;12.88;72.85
68865;DHT22;55898;52.196;4.420;2022-09-27T00:38:41;12.86;72.67
68865;DHT22;55898;52.196;4.420;2022-09-27T00:41:22;12.89;73.58
68865;DHT22;55898;52.196;4.420;2022-09-27T00:43:51;12.92;71.37
68865;DHT22;55898;52.196;4.420;2022-09-27T00:46:28;12.96;68.20
68865;DHT22;55898;52.196;4.420;2022-09-27T00:51:39;13.06;69.15
68865;DHT22;55898;52.196;4.420;2022-09-27T00:54:11;13.12;70.75
68865;DHT22;55898;52.196;4.420;2022-09-27T00:56:38;13.14;70.01
68865;DHT22;55898;52.196;4.420;2022-09-27T00:59:22;13.12;68.40
68865;DHT22;55898;52.196;4.420;2022-09-27T01:01:49;13.14;68.59
68865;DHT22;55898;52.196;4.420;2022-09-27T01:04:20;13.17;67.62
68865;DHT22;55898;52.196;4.420;2022-09-27T01:06:48;13.17;69.02
68865;DHT22;55898;52.196;4.420;2022-09-27T01:09:13;13.02;69.24
68865;DHT22;55898;52.196;4.420;2022-09-27T01:31:14;13.06;68.96
68865;DHT22;55898;52.196;4.420;2022-09-27T01:42:21;13.17;66.80
68865;DHT22;55898;52.196;4.420;2022-09-27T01:47:23;13.21;67.43
68865;DHT22;55898;52.196;4.420;2022-09-27T01:49:58;13.27;66.83
68865;DHT22;55898;52.196;4.420;2022-09-27T01:52:38;13.28;66.43
68865;DHT22;55898;52.196;4.420;2022-09-27T01:55:09;13.31;67.12
68865;DHT22;55898;52.196;4.420;2022-09-27T01:57:42;13.31;66.70
68865;DHT22;55898;52.196;4.420;2022-09-27T02:00:11;13.39;68.89
68865;DHT22;55898;52.196;4.420;2022-09-27T02:02:43;13.39;69.65
68865;DHT22;55898;52.196;4.420;2022-09-27T02:05:12;13.19;68.98
68865;DHT22;55898;52.196;4.420;2022-09-27T02:07:56;12.99;70.79
68865;DHT22;55898;52.196;4.420;2022-09-27T02:10:33;12.21;78.91
68865;DHT22;55898;52.196;4.420;2022-09-27T02:16:05;11.42;84.42
68865;DHT22;55898;52.196;4.420;2022-09-27T02:19:32;11.31;85.63
68865;DHT22;55898;52.196;4.420;2022-09-27T02:24:11;11.32;87.12
68865;DHT22;55898;52.196;4.420;2022-09-27T02:26:43;11.35;86.98
68865;DHT22;55898;52.196;4.420;2022-09-27T02:29:17;11.38;87.14
68865;DHT22;55898;52.196;4.420;2022-09-27T02:31:46;11.42;87.47
68865;DHT22;55898;52.196;4.420;2022-09-27T02:34:23;11.39;86.70
68865;DHT22;55898;52.196;4.420;2022-09-27T02:36:50;11.34;86.84
68865;DHT22;55898;52.196;4.420;2022-09-27T02:39:18;11.36;87.05
68865;DHT22;55898;52.196;4.420;2022-09-27T02:41:44;11.31;87.27
68865;DHT22;55898;52.196;4.420;2022-09-27T02:44:13;11.36;87.10
68865;DHT22;55898;52.196;4.420;2022-09-27T02:47:18;11.36;86.91
68865;DHT22;55898;52.196;4.420;2022-09-27T03:00:37;11.42;86.04
68865;DHT22;55898;52.196;4.420;2022-09-27T03:03:20;11.43;85.74
68865;DHT22;55898;52.196;4.420;2022-09-27T03:06:00;11.46;84.84
68865;DHT22;55898;52.196;4.420;2022-09-27T03:08:27;11.46;84.56
68865;DHT22;55898;52.196;4.420;2022-09-27T03:10:53;11.40;81.92
68865;DHT22;55898;52.196;4.420;2022-09-27T03:13:18;11.48;82.18
68865;DHT22;55898;52.196;4.420;2022-09-27T03:15:44;11.55;84.19
68865;DHT22;55898;52.196;4.420;2022-09-27T03:18:09;11.63;84.34
68865;DHT22;55898;52.196;4.420;2022-09-27T03:20:36;11.72;84.44
68865;DHT22;55898;52.196;4.420;2022-09-27T03:23:01;11.80;83.69
68865;DHT22;55898;52.196;4.420;2022-09-27T03:25:27;11.79;80.95
68865;DHT22;55898;52.196;4.420;2022-09-27T03:27:52;11.77;81.42
68865;DHT22;55898;52.196;4.420;2022-09-27T03:30:18;11.79;81.76
68865;DHT22;55898;52.196;4.420;2022-09-27T03:32:44;11.79;82.06
68865;DHT22;55898;52.196;4.420;2022-09-27T03:35:11;11.89;82.33
68865;DHT22;55898;52.196;4.420;2022-09-27T03:37:37;11.89;81.58
68865;DHT22;55898;52.196;4.420;2022-09-27T03:40:04;11.89;80.57
68865;DHT22;55898;52.196;4.420;2022-09-27T03:42:30;11.87;80.47
68865;DHT22;55898;52.196;4.420;2022-09-27T03:44:55;11.84;80.02
68865;DHT22;55898;52.196;4.420;2022-09-27T03:47:20;11.80;79.62
68865;DHT22;55898;52.196;4.420;2022-09-27T03:49:47;11.77;79.00
68865;DHT22;55898;52.196;4.420;2022-09-27T03:52:13;11.83;79.96
68865;DHT22;55898;52.196;4.420;2022-09-27T03:54:39;11.90;79.92
68865;DHT22;55898;52.196;4.420;2022-09-27T03:57:05;11.94;80.42
68865;DHT22;55898;52.196;4.420;2022-09-27T03:59:30;11.96;80.16
68865;DHT22;55898;52.196;4.420;2022-09-27T04:01:56;12.03;80.40
68865;DHT22;55898;52.196;4.420;2022-09-27T04:04:21;11.97;79.00
68865;DHT22;55898;52.196;4.420;2022-09-27T04:06:47;11.97;77.52
68865;DHT22;55898;52.196;4.420;2022-09-27T04:09:13;11.94;76.54
68865;DHT22;55898;52.196;4.420;2022-09-27T04:11:38;11.94;77.33
68865;DHT22;55898;52.196;4.420;2022-09-27T04:14:04;11.98;76.97
68865;DHT22;55898;52.196;4.420;2022-09-27T04:16:30;12.03;75.58
68865;DHT22;55898;52.196;4.420;2022-09-27T04:18:56;12.12;78.03
68865;DHT22;55898;52.196;4.420;2022-09-27T04:21:22;12.07;76.51
68865;DHT22;55898;52.196;4.420;2022-09-27T04:23:47;12.07;77.16
68865;DHT22;55898;52.196;4.420;2022-09-27T04:26:13;12.04;76.87
68865;DHT22;55898;52.196;4.420;2022-09-27T04:28:38;12.10;77.97
68865;DHT22;55898;52.196;4.420;2022-09-27T04:31:05;12.14;76.33
68865;DHT22;55898;52.196;4.420;2022-09-27T04:33:30;12.17;75.21
68865;DHT22;55898;52.196;4.420;2022-09-27T04:35:56;12.21;75.22
68865;DHT22;55898;52.196;4.420;2022-09-27T04:38:40;12.27;76.61
68865;DHT22;55898;52.196;4.420;2022-09-27T04:41:06;12.30;76.64
68865;DHT22;55898;52.196;4.420;2022-09-27T04:43:31;12.24;77.41
68865;DHT22;55898;52.196;4.420;2022-09-27T04:45:57;12.18;76.65
68865;DHT22;55898;52.196;4.420;2022-09-27T04:48:22;12.18;77.38
68865;DHT22;55898;52.196;4.420;2022-09-27T04:50:59;12.14;77.16
68865;DHT22;55898;52.196;4.420;2022-09-27T04:53:27;12.16;74.87
68865;DHT22;55898;52.196;4.420;2022-09-27T04:55:54;12.14;75.81
68865;DHT22;55898;52.196;4.420;2022-09-27T04:58:21;12.18;77.16
68865;DHT22;55898;52.196;4.420;2022-09-27T05:00:48;12.20;79.28
68865;DHT22;55898;52.196;4.420;2022-09-27T05:03:17;12.12;78.35
68865;DHT22;55898;52.196;4.420;2022-09-27T05:05:43;12.08;78.48
68865;DHT22;55898;52.196;4.420;2022-09-27T05:08:09;11.98;76.82
68865;DHT22;55898;52.196;4.420;2022-09-27T05:10:35;11.96;77.56
68865;DHT22;55898;52.196;4.420;2022-09-27T05:13:00;11.94;77.27
68865;DHT22;55898;52.196;4.420;2022-09-27T05:15:26;11.93;77.16
68865;DHT22;55898;52.196;4.420;2022-09-27T05:17:52;11.89;77.25
68865;DHT22;55898;52.196;4.420;2022-09-27T05:20:17;11.93;78.77
68865;DHT22;55898;52.196;4.420;2022-09-27T05:22:44;11.94;78.24
68865;DHT22;55898;52.196;4.420;2022-09-27T05:25:10;11.98;78.58
68865;DHT22;55898;52.196;4.420;2022-09-27T05:27:35;12.01;79.29
68865;DHT22;55898;52.196;4.420;2022-09-27T05:30:01;12.06;78.78
68865;DHT22;55898;52.196;4.420;2022-09-27T05:32:27;12.07;78.24
68865;DHT22;55898;52.196;4.420;2022-09-27T05:34:53;12.07;77.80
68865;DHT22;55898;52.196;4.420;2022-09-27T05:37:19;12.07;75.57
68865;DHT22;55898;52.196;4.420;2022-09-27T05:39:45;12.10;73.30
68865;DHT22;55898;52.196;4.420;2022-09-27T05:42:11;12.07;74.34
68865;DHT22;55898;52.196;4.420;2022-09-27T05:44:38;12.14;75.14
68865;DHT22;55898;52.196;4.420;2022-09-27T05:47:04;12.17;73.18
68865;DHT22;55898;52.196;4.420;2022-09-27T05:49:30;12.18;74.68
68865;DHT22;55898;52.196;4.420;2022-09-27T05:51:56;12.17;75.06
68865;DHT22;55898;52.196;4.420;2022-09-27T05:54:22;12.17;73.53
68865;DHT22;55898;52.196;4.420;2022-09-27T05:56:47;12.21;73.05
68865;DHT22;55898;52.196;4.420;2022-09-27T05:59:13;12.23;73.10
68865;DHT22;55898;52.196;4.420;2022-09-27T06:01:38;12.31;72.88
68865;DHT22;55898;52.196;4.420;2022-09-27T06:04:04;12.30;73.64
68865;DHT22;55898;52.196;4.420;2022-09-27T06:06:30;12.33;74.19
68865;DHT22;55898;52.196;4.420;2022-09-27T06:08:58;12.34;74.34
68865;DHT22;55898;52.196;4.420;2022-09-27T06:11:24;12.40;75.87
68865;DHT22;55898;52.196;4.420;2022-09-27T06:13:51;12.41;76.61
68865;DHT22;55898;52.196;4.420;2022-09-27T06:16:17;12.35;76.73
68865;DHT22;55898;52.196;4.420;2022-09-27T06:18:42;12.41;76.80
68865;DHT22;55898;52.196;4.420;2022-09-27T06:21:08;12.37;77.05
68865;DHT22;55898;52.196;4.420;2022-09-27T06:23:33;12.40;76.98
68865;DHT22;55898;52.196;4.420;2022-09-27T06:26:03;12.40;77.26
68865;DHT22;55898;52.196;4.420;2022-09-27T06:28:29;12.34;78.14
68865;DHT22;55898;52.196;4.420;2022-09-27T06:30:56;12.40;78.95
68865;DHT22;55898;52.196;4.420;2022-09-27T06:33:22;12.40;78.09
68865;DHT22;55898;52.196;4.420;2022-09-27T06:35:47;12.33;78.53
68865;DHT22;55898;52.196;4.420;2022-09-27T06:38:16;12.31;78.49
68865;DHT22;55898;52.196;4.420;2022-09-27T06:40:43;12.28;78.54
68865;DHT22;55898;52.196;4.420;2022-09-27T06:43:18;12.34;78.37
68865;DHT22;55898;52.196;4.420;2022-09-27T06:45:47;12.37;78.06
68865;DHT22;55898;52.196;4.420;2022-09-27T06:48:14;12.31;78.03
68865;DHT22;55898;52.196;4.420;2022-09-27T06:50:42;12.28;78.56
68865;DHT22;55898;52.196;4.420;2022-09-27T06:53:10;12.30;78.15
68865;DHT22;55898;52.196;4.420;2022-09-27T06:55:37;12.21;76.82
68865;DHT22;55898;52.196;4.420;2022-09-27T06:58:04;12.14;76.55
68865;DHT22;55898;52.196;4.420;2022-09-27T07:00:50;12.14;78.08
68865;DHT22;55898;52.196;4.420;2022-09-27T07:03:17;12.08;79.25
68865;DHT22;55898;52.196;4.420;2022-09-27T07:05:42;12.00;80.86
68865;DHT22;55898;52.196;4.420;2022-09-27T07:08:09;11.93;80.83
68865;DHT22;55898;52.196;4.420;2022-09-27T07:10:38;11.84;81.03
68865;DHT22;55898;52.196;4.420;2022-09-27T07:13:09;11.75;81.87
68865;DHT22;55898;52.196;4.420;2022-09-27T07:15:36;11.72;81.97
68865;DHT22;55898;52.196;4.420;2022-09-27T07:18:03;11.66;81.35
68865;DHT22;55898;52.196;4.420;2022-09-27T07:20:30;11.63;81.07
68865;DHT22;55898;52.196;4.420;2022-09-27T07:22:56;11.65;81.80
68865;DHT22;55898;52.196;4.420;2022-09-27T07:25:22;11.67;81.85
68865;DHT22;55898;52.196;4.420;2022-09-27T07:27:48;11.72;82.29
68865;DHT22;55898;52.196;4.420;2022-09-27T07:30:14;11.77;82.15
68865;DHT22;55898;52.196;4.420;2022-09-27T07:32:41;11.82;82.67
68865;DHT22;55898;52.196;4.420;2022-09-27T07:35:09;11.84;83.16
68865;DHT22;55898;52.196;4.420;2022-09-27T07:37:36;11.91;83.61
68865;DHT22;55898;52.196;4.420;2022-09-27T07:40:04;11.94;83.59
68865;DHT22;55898;52.196;4.420;2022-09-27T07:42:37;11.98;83.46
68865;DHT22;55898;52.196;4.420;2022-09-27T07:45:05;12.00;83.27
68865;DHT22;55898;52.196;4.420;2022-09-27T07:47:31;11.97;81.60
68865;DHT22;55898;52.196;4.420;2022-09-27T07:49:57;12.04;82.52
68865;DHT22;55898;52.196;4.420;2022-09-27T07:52:22;12.08;81.84
68865;DHT22;55898;52.196;4.420;2022-09-27T07:54:48;11.98;82.13
68865;DHT22;55898;52.196;4.420;2022-09-27T07:57:14;11.97;82.51
68865;DHT22;55898;52.196;4.420;2022-09-27T07:59:40;11.93;81.77
68865;DHT22;55898;52.196;4.420;2022-09-27T08:02:13;11.96;82.31
68865;DHT22;55898;52.196;4.420;2022-09-27T08:04:40;11.93;81.88
68865;DHT22;55898;52.196;4.420;2022-09-27T08:07:06;11.94;81.37
68865;DHT22;55898;52.196;4.420;2022-09-27T08:09:32;11.96;80.36
68865;DHT22;55898;52.196;4.420;2022-09-27T08:11:57;11.97;81.74
68865;DHT22;55898;52.196;4.420;2022-09-27T08:14:23;12.03;81.16
68865;DHT22;55898;52.196;4.420;2022-09-27T08:16:49;12.04;80.96
68865;DHT22;55898;52.196;4.420;2022-09-27T08:19:15;11.97;79.56
68865;DHT22;55898;52.196;4.420;2022-09-27T08:21:43;11.97;80.83
68865;DHT22;55898;52.196;4.420;2022-09-27T08:24:08;12.00;80.04
68865;DHT22;55898;52.196;4.420;2022-09-27T08:26:34;12.04;79.88
68865;DHT22;55898;52.196;4.420;2022-09-27T08:28:59;12.07;79.18
68865;DHT22;55898;52.196;4.420;2022-09-27T08:31:25;12.04;78.35
68865;DHT22;55898;52.196;4.420;2022-09-27T08:33:51;12.16;79.05
68865;DHT22;55898;52.196;4.420;2022-09-27T08:36:18;12.18;78.41
68865;DHT22;55898;52.196;4.420;2022-09-27T08:38:48;12.25;79.38
68865;DHT22;55898;52.196;4.420;2022-09-27T08:41:36;12.34;78.43
68865;DHT22;55898;52.196;4.420;2022-09-27T08:47:17;12.44;81.30
68865;DHT22;55898;52.196;4.420;2022-09-27T08:52:40;12.35;80.79
68865;DHT22;55898;52.196;4.420;2022-09-27T08:55:40;12.38;80.87
68865;DHT22;55898;52.196;4.420;2022-09-27T08:58:22;12.41;81.28
68865;DHT22;55898;52.196;4.420;2022-09-27T09:00:55;12.46;82.21
68865;DHT22;55898;52.196;4.420;2022-09-27T09:03:26;12.48;81.85
68865;DHT22;55898;52.196;4.420;2022-09-27T09:25:48;12.00;81.65
68865;DHT22;55898;52.196;4.420;2022-09-27T09:34:19;11.89;83.84
68865;DHT22;55898;52.196;4.420;2022-09-27T09:39:52;11.86;84.37
68865;DHT22;55898;52.196;4.420;2022-09-27T09:42:30;11.89;84.23
68865;DHT22;55898;52.196;4.420;2022-09-27T09:45:03;11.96;84.34
68865;DHT22;55898;52.196;4.420;2022-09-27T09:47:46;12.00;84.55
68865;DHT22;55898;52.196;4.420;2022-09-27T09:50:24;12.04;85.08
68865;DHT22;55898;52.196;4.420;2022-09-27T09:53:01;12.00;84.71
68865;DHT22;55898;52.196;4.420;2022-09-27T09:55:34;12.07;84.81
68865;DHT22;55898;52.196;4.420;2022-09-27T10:00:46;12.13;85.14
68865;DHT22;55898;52.196;4.420;2022-09-27T10:03:12;12.14;85.14
68865;DHT22;55898;52.196;4.420;2022-09-27T10:05:37;12.04;83.67
68865;DHT22;55898;52.196;4.420;2022-09-27T10:08:14;12.04;84.64
68865;DHT22;55898;52.196;4.420;2022-09-27T10:10:41;11.97;84.32
68865;DHT22;55898;52.196;4.420;2022-09-27T10:13:17;11.93;84.19
68865;DHT22;55898;52.196;4.420;2022-09-27T10:15:54;11.90;84.17
68865;DHT22;55898;52.196;4.420;2022-09-27T10:18:21;11.87;84.38
68865;DHT22;55898;52.196;4.420;2022-09-27T10:20:52;11.91;84.27
68865;DHT22;55898;52.196;4.420;2022-09-27T10:23:22;11.94;85.11
68865;DHT22;55898;52.196;4.420;2022-09-27T10:28:34;11.96;84.68
68865;DHT22;55898;52.196;4.420;2022-09-27T10:31:05;11.98;84.73
68865;DHT22;55898;52.196;4.420;2022-09-27T10:33:31;12.03;84.66
68865;DHT22;55898;52.196;4.420;2022-09-27T10:35:59;12.07;84.79
68865;DHT22;55898;52.196;4.420;2022-09-27T10:38:33;12.16;84.88
68865;DHT22;55898;52.196;4.420;2022-09-27T10:41:24;12.23;84.84
68865;DHT22;55898;52.196;4.420;2022-09-27T10:43:50;12.28;84.82
68865;DHT22;55898;52.196;4.420;2022-09-27T10:48:47;12.23;82.79
68865;DHT22;55898;52.196;4.420;2022-09-27T10:51:25;12.00;83.05
68865;DHT22;55898;52.196;4.420;2022-09-27T10:53:53;11.69;84.24
68865;DHT22;55898;52.196;4.420;2022-09-27T10:56:31;11.35;85.16
68865;DHT22;55898;52.196;4.420;2022-09-27T10:58:58;11.06;86.15
68865;DHT22;55898;52.196;4.420;2022-09-27T11:01:26;11.01;86.66
68865;DHT22;55898;52.196;4.420;2022-09-27T11:04:03;11.07;87.22
68865;DHT22;55898;52.196;4.420;2022-09-27T11:06:31;11.10;87.32
68865;DHT22;55898;52.196;4.420;2022-09-27T11:09:22;11.18;87.46
68865;DHT22;55898;52.196;4.420;2022-09-27T11:12:13;11.32;87.50
68865;DHT22;55898;52.196;4.420;2022-09-27T11:14:40;11.63;87.48
68865;DHT22;55898;52.196;4.420;2022-09-27T11:17:18;11.93;87.43
68865;DHT22;55898;52.196;4.420;2022-09-27T11:20:14;12.16;86.91
68865;DHT22;55898;52.196;4.420;2022-09-27T11:25:54;12.42;86.33
68865;DHT22;55898;52.196;4.420;2022-09-27T11:45:10;12.92;84.60
68865;DHT22;55898;52.196;4.420;2022-09-27T11:48:18;12.95;83.98
68865;DHT22;55898;52.196;4.420;2022-09-27T11:54:09;13.03;82.60
68865;DHT22;55898;52.196;4.420;2022-09-27T11:59:42;13.30;81.48
68865;DHT22;55898;52.196;4.420;2022-09-27T12:02:37;13.65;80.27
68865;DHT22;55898;52.196;4.420;2022-09-27T12:05:36;13.85;77.67
68865;DHT22;55898;52.196;4.420;2022-09-27T12:11:01;14.04;77.99
68865;DHT22;55898;52.196;4.420;2022-09-27T12:13:43;14.08;77.61
68865;DHT22;55898;52.196;4.420;2022-09-27T12:16:14;14.10;77.56
68865;DHT22;55898;52.196;4.420;2022-09-27T12:18:42;14.32;77.52
68865;DHT22;55898;52.196;4.420;2022-09-27T12:21:10;14.36;72.90
68865;DHT22;55898;52.196;4.420;2022-09-27T12:23:46;14.53;75.12
68865;DHT22;55898;52.196;4.420;2022-09-27T13:12:53;13.98;71.94
68865;DHT22;55898;52.196;4.420;2022-09-27T13:15:35;13.94;70.41
68865;DHT22;55898;52.196;4.420;2022-09-27T13:18:06;14.16;70.32
68865;DHT22;55898;52.196;4.420;2022-09-27T13:20:51;14.18;67.19
68865;DHT22;55898;52.196;4.420;2022-09-27T13:25:49;14.39;69.40
68865;DHT22;55898;52.196;4.420;2022-09-27T13:30:55;14.36;70.35
68865;DHT22;55898;52.196;4.420;2022-09-27T13:41:20;14.47;69.33
68865;DHT22;55898;52.196;4.420;2022-09-27T13:44:05;14.55;68.48
68865;DHT22;55898;52.196;4.420;2022-09-27T13:46:35;14.59;68.79
68865;DHT22;55898;52.196;4.420;2022-09-27T13:49:23;14.81;69.26
68865;DHT22;55898;52.196;4.420;2022-09-27T13:51:55;15.12;67.68
68865;DHT22;55898;52.196;4.420;2022-09-27T13:54:51;15.49;65.56
68865;DHT22;55898;52.196;4.420;2022-09-27T14:00:04;16.04;64.25
68865;DHT22;55898;52.196;4.420;2022-09-27T14:02:40;15.98;62.93
68865;DHT22;55898;52.196;4.420;2022-09-27T14:05:16;15.90;62.86
68865;DHT22;55898;52.196;4.420;2022-09-27T14:07:45;15.79;62.31
68865;DHT22;55898;52.196;4.420;2022-09-27T14:10:17;15.84;63.71
68865;DHT22;55898;52.196;4.420;2022-09-27T14:12:47;15.67;62.34
68865;DHT22;55898;52.196;4.420;2022-09-27T14:15:27;15.52;64.95
68865;DHT22;55898;52.196;4.420;2022-09-27T14:17:55;15.43;63.79
68865;DHT22;55898;52.196;4.420;2022-09-27T14:20:40;15.28;63.09
68865;DHT22;55898;52.196;4.420;2022-09-27T14:23:36;15.09;60.70
68865;DHT22;55898;52.196;4.420;2022-09-27T14:26:01;15.05;62.62
68865;DHT22;55898;52.196;4.420;2022-09-27T14:28:30;14.99;65.74
68865;DHT22;55898;52.196;4.420;2022-09-27T14:31:16;14.99;65.84
68865;DHT22;55898;52.196;4.420;2022-09-27T14:33:44;14.92;64.43
68865;DHT22;55898;52.196;4.420;2022-09-27T14:36:25;14.92;66.34
68865;DHT22;55898;52.196;4.420;2022-09-27T14:39:24;14.87;63.57
68865;DHT22;55898;52.196;4.420;2022-09-27T14:41:50;14.83;64.09
68865;DHT22;55898;52.196;4.420;2022-09-27T14:44:18;14.76;63.73
68865;DHT22;55898;52.196;4.420;2022-09-27T14:46:45;14.67;63.36
68865;DHT22;55898;52.196;4.420;2022-09-27T14:49:22;14.63;62.42
68865;DHT22;55898;52.196;4.420;2022-09-27T14:51:54;14.49;62.75
68865;DHT22;55898;52.196;4.420;2022-09-27T14:54:25;14.47;62.50
68865;DHT22;55898;52.196;4.420;2022-09-27T14:56:56;14.39;64.46
68865;DHT22;55898;52.196;4.420;2022-09-27T14:59:27;14.30;70.77
68865;DHT22;55898;52.196;4.420;2022-09-27T15:01:59;13.95;75.18
68865;DHT22;55898;52.196;4.420;2022-09-27T15:04:28;13.53;76.74
68865;DHT22;55898;52.196;4.420;2022-09-27T15:06:57;13.20;77.84
68865;DHT22;55898;52.196;4.420;2022-09-27T15:09:23;13.06;78.89
68865;DHT22;55898;52.196;4.420;2022-09-27T15:11:54;13.07;80.55
68865;DHT22;55898;52.196;4.420;2022-09-27T15:14:25;13.10;81.49
68865;DHT22;55898;52.196;4.420;2022-09-27T15:16:54;13.14;81.45
68865;DHT22;55898;52.196;4.420;2022-09-27T15:19:25;13.17;81.34
68865;DHT22;55898;52.196;4.420;2022-09-27T15:21:52;13.06;80.61
68865;DHT22;55898;52.196;4.420;2022-09-27T15:27:03;12.96;81.98
68865;DHT22;55898;52.196;4.420;2022-09-27T15:29:29;13.03;82.44
68865;DHT22;55898;52.196;4.420;2022-09-27T15:32:03;12.92;81.73
68865;DHT22;55898;52.196;4.420;2022-09-27T15:34:31;12.85;81.98
68865;DHT22;55898;52.196;4.420;2022-09-27T15:37:02;12.86;82.87
68865;DHT22;55898;52.196;4.420;2022-09-27T15:42:06;12.86;83.12
68865;DHT22;55898;52.196;4.420;2022-09-27T15:44:49;12.86;83.32
68865;DHT22;55898;52.196;4.420;2022-09-27T15:50:30;12.82;81.70
68865;DHT22;55898;52.196;4.420;2022-09-27T15:52:51;12.85;82.05
68865;DHT22;55898;52.196;4.420;2022-09-27T15:55:23;12.83;81.78
68865;DHT22;55898;52.196;4.420;2022-09-27T15:57:53;12.79;81.21
68865;DHT22;55898;52.196;4.420;2022-09-27T16:00:22;12.81;82.06
68865;DHT22;55898;52.196;4.420;2022-09-27T16:02:47;12.82;81.38
68865;DHT22;55898;52.196;4.420;2022-09-27T16:05:13;12.79;80.36
68865;DHT22;55898;52.196;4.420;2022-09-27T16:07:39;12.71;79.42
68865;DHT22;55898;52.196;4.420;2022-09-27T16:10:17;12.68;78.80
68865;DHT22;55898;52.196;4.420;2022-09-27T16:12:43;12.69;79.51
68865;DHT22;55898;52.196;4.420;2022-09-27T16:15:13;12.66;78.91
68865;DHT22;55898;52.196;4.420;2022-09-27T16:17:40;12.63;78.73
68865;DHT22;55898;52.196;4.420;2022-09-27T16:20:18;12.62;79.54
68865;DHT22;55898;52.196;4.420;2022-09-27T16:22:45;12.59;78.44
68865;DHT22;55898;52.196;4.420;2022-09-27T16:25:11;12.62;78.48
68865;DHT22;55898;52.196;4.420;2022-09-27T16:27:36;12.66;79.64
68865;DHT22;55898;52.196;4.420;2022-09-27T16:30:03;12.66;79.64
68865;DHT22;55898;52.196;4.420;2022-09-27T16:32:29;12.69;80.37
68865;DHT22;55898;52.196;4.420;2022-09-27T16:34:54;12.65;78.90
68865;DHT22;55898;52.196;4.420;2022-09-27T16:37:22;12.66;78.23
68865;DHT22;55898;52.196;4.420;2022-09-27T16:39:47;12.65;79.13
68865;DHT22;55898;52.196;4.420;2022-09-27T16:42:13;12.68;77.72
68865;DHT22;55898;52.196;4.420;2022-09-27T16:44:39;12.66;77.96
68865;DHT22;55898;52.196;4.420;2022-09-27T16:47:05;12.62;78.39
68865;DHT22;55898;52.196;4.420;2022-09-27T16:49:32;12.62;77.77
68865;DHT22;55898;52.196;4.420;2022-09-27T16:52:16;12.65;77.93
68865;DHT22;55898;52.196;4.420;2022-09-27T16:54:42;12.66;79.44
68865;DHT22;55898;52.196;4.420;2022-09-27T16:57:07;12.63;78.62
68865;DHT22;55898;52.196;4.420;2022-09-27T16:59:34;12.63;79.53
68865;DHT22;55898;52.196;4.420;2022-09-27T17:01:59;12.61;77.32
68865;DHT22;55898;52.196;4.420;2022-09-27T17:04:26;12.59;76.74
68865;DHT22;55898;52.196;4.420;2022-09-27T17:06:55;12.62;77.16
68865;DHT22;55898;52.196;4.420;2022-09-27T17:09:21;12.58;77.02
68865;DHT22;55898;52.196;4.420;2022-09-27T17:11:46;12.61;77.50
68865;DHT22;55898;52.196;4.420;2022-09-27T17:14:14;12.54;77.44
68865;DHT22;55898;52.196;4.420;2022-09-27T17:16:45;12.54;77.15
68865;DHT22;55898;52.196;4.420;2022-09-27T17:19:11;12.49;76.30
68865;DHT22;55898;52.196;4.420;2022-09-27T17:21:36;12.49;75.79
68865;DHT22;55898;52.196;4.420;2022-09-27T17:24:02;12.48;75.69
68865;DHT22;55898;52.196;4.420;2022-09-27T17:26:29;12.46;77.63
68865;DHT22;55898;52.196;4.420;2022-09-27T17:28:57;12.44;77.61
68865;DHT22;55898;52.196;4.420;2022-09-27T17:31:26;12.40;76.15
68865;DHT22;55898;52.196;4.420;2022-09-27T17:33:52;12.41;75.67
68865;DHT22;55898;52.196;4.420;2022-09-27T17:36:23;12.45;77.37
68865;DHT22;55898;52.196;4.420;2022-09-27T17:38:51;12.45;77.59
68865;DHT22;55898;52.196;4.420;2022-09-27T17:41:21;12.41;77.01
68865;DHT22;55898;52.196;4.420;2022-09-27T17:43:52;12.45;78.65
68865;DHT22;55898;52.196;4.420;2022-09-27T17:46:21;12.42;77.31
68865;DHT22;55898;52.196;4.420;2022-09-27T17:48:48;12.45;78.08
68865;DHT22;55898;52.196;4.420;2022-09-27T17:51:35;12.44;75.43
68865;DHT22;55898;52.196;4.420;2022-09-27T17:54:01;12.45;78.13
68865;DHT22;55898;52.196;4.420;2022-09-27T17:56:27;12.44;75.17
68865;DHT22;55898;52.196;4.420;2022-09-27T17:58:54;12.46;77.37
68865;DHT22;55898;52.196;4.420;2022-09-27T18:01:22;12.42;76.38
68865;DHT22;55898;52.196;4.420;2022-09-27T18:03:52;12.44;74.71
68865;DHT22;55898;52.196;4.420;2022-09-27T18:06:18;12.45;73.59
68865;DHT22;55898;52.196;4.420;2022-09-27T18:08:44;12.48;74.22
68865;DHT22;55898;52.196;4.420;2022-09-27T18:11:15;12.49;73.34
68865;DHT22;55898;52.196;4.420;2022-09-27T18:13:42;12.52;73.07
68865;DHT22;55898;52.196;4.420;2022-09-27T18:16:15;12.55;74.16
68865;DHT22;55898;52.196;4.420;2022-09-27T18:18:43;12.61;74.69
68865;DHT22;55898;52.196;4.420;2022-09-27T18:21:14;12.62;75.35
68865;DHT22;55898;52.196;4.420;2022-09-27T18:23:41;12.66;75.79
68865;DHT22;55898;52.196;4.420;2022-09-27T18:26:08;12.63;75.95
68865;DHT22;55898;52.196;4.420;2022-09-27T18:28:39;12.62;75.57
68865;DHT22;55898;52.196;4.420;2022-09-27T18:31:08;12.63;75.02
68865;DHT22;55898;52.196;4.420;2022-09-27T18:33:34;12.61;75.03
68865;DHT22;55898;52.196;4.420;2022-09-27T18:36:04;12.55;76.05
68865;DHT22;55898;52.196;4.420;2022-09-27T18:38:30;12.52;75.94
68865;DHT22;55898;52.196;4.420;2022-09-27T18:41:03;12.42;75.41
68865;DHT22;55898;52.196;4.420;2022-09-27T18:43:29;12.38;76.14
68865;DHT22;55898;52.196;4.420;2022-09-27T18:45:54;12.34;77.64
68865;DHT22;55898;52.196;4.420;2022-09-27T18:48:19;12.31;78.46
68865;DHT22;55898;52.196;4.420;2022-09-27T18:50:45;12.27;78.17
68865;DHT22;55898;52.196;4.420;2022-09-27T18:53:10;12.24;78.68
68865;DHT22;55898;52.196;4.420;2022-09-27T18:55:37;12.21;78.69
68865;DHT22;55898;52.196;4.420;2022-09-27T18:58:03;12.17;76.95
68865;DHT22;55898;52.196;4.420;2022-09-27T19:00:28;12.12;77.11